Detall de PIREP

Printer-friendly versionPDF version

[2012/10/06 11:33:00]
Flight IATA:CT1003
Pilot Number:012
Company ICAO:CAT
Aircraft Type:A320/E
PAX:150
Departing Airport: LIEA
Destination Airport: LHBP
Alternate Airport:LOWW
Online: VATSIM
Route:MINKA/M080F350 UL5 VALMA/M080F360 UL865 ANC UM986 KULEN/M080F350 UM986 KOPRY UY573 VEBOS
Flight Level:F350
No Slew and time accel
No pause
Crash detect
Detect pilot in Cockpit between each 30 and 45 minutes
11:33 Zero fuel Weight: 119629 Lbs, Fuel Weight: 24420 Lbs
11:33 VATSIM:LIEA 061550Z 18006KT CAVOK 24/19 Q1020
11:33 VATSIM:LHBP 061600Z 16006KT CAVOK 21/12 Q1016 NOSIG
11:34 VOICE CATALONIAN / CPT LHBP
11:35 Parking Brakes off
11:40 Take-off
11:40 Take off Weight: 143260 Lbs
11:40 Wind: 180º @ 006 Knots Heading: 203º
11:40 POS N40º 37´ 38´´ E008º 17´ 16´´
11:40 Flaps:2 at 170 Knots
11:40 Gear Up: 171 Knots
11:40 Flaps:0 at 180 Knots
11:55 Wind:239º@018 Knots Heading: 069º Ground Speed: 478 Knots Altitude 31948 ft
11:56 TOC
11:56 Fuel Weight: 19591 Lb
12:10 Wind:245º@020 Knots Heading: 031º Ground Speed: 464 Knots Altitude 36194 ft
12:25 Wind:248º@027 Knots Heading: 033º Ground Speed: 473 Knots Altitude 36141 ft
12:40 Wind:235º@048 Knots Heading: 048º Ground Speed: 499 Knots Altitude 35114 ft
12:55 Wind:239º@057 Knots Heading: 045º Ground Speed: 509 Knots Altitude 35082 ft
12:55 TOD
12:55 Fuel Weight: 14204 Lb
13:10 Wind:275º@000 Knots Heading: 122º Ground Speed: 216 Knots Altitude 3969 ft
13:12 Flaps:1 at 202 Knots
13:12 Flaps:3 at 188 Knots
13:12 Gear Down: 188 Knots
13:13 Flaps:4 at 163 Knots
13:13 Flaps:5 at 149 Knots
13:16 TouchDown:Rate -234 ft/min Speed: 131 Knots
13:16 Flaps:2 at 48 Knots
13:16 Flaps:0 at 47 Knots
13:16 VATSIM:LHBP 061800Z VRB01KT CAVOK 16/12 Q1016 NOSIG
13:16 Land
13:16 Wind:357º@002 Knots
13:16 Heading: 132º
13:16 Flight Duration: 01:36
13:16 Landing Weight: 132545 Lbs
13:16 POS N47º 26´ 20´´ E019º 14´ 12´´
13:22 Parking brakes on
13:22 Block to Block Duration: 01:47
13:22 Final Fuel: 12347 Lbls
13:22 Spent Fuel: 12072 Lbls
13:22 Flight Length: 688 NM
13:22 TOD Land Length: 107 NM

Exportar CSV

Powered by Drupal - Modified by Danger4k